sensor_id;sensor_type;location;lat;lon;timestamp;P1;durP1;ratioP1;P2;durP2;ratioP2
5416;SDS011;2731;50.754;12.990;2023-02-24T00:01:01;18.67;;;12.75;;
5416;SDS011;2731;50.754;12.990;2023-02-24T00:03:36;22.83;;;14.32;;
5416;SDS011;2731;50.754;12.990;2023-02-24T00:06:03;25.33;;;16.55;;
5416;SDS011;2731;50.754;12.990;2023-02-24T00:08:36;26.90;;;15.05;;
5416;SDS011;2731;50.754;12.990;2023-02-24T00:11:08;24.77;;;15.43;;
5416;SDS011;2731;50.754;12.990;2023-02-24T00:13:35;28.30;;;16.55;;
5416;SDS011;2731;50.754;12.990;2023-02-24T00:16:01;29.88;;;16.55;;
5416;SDS011;2731;50.754;12.990;2023-02-24T00:18:28;28.75;;;17.40;;
5416;SDS011;2731;50.754;12.990;2023-02-24T00:21:07;31.67;;;19.08;;
5416;SDS011;2731;50.754;12.990;2023-02-24T00:23:35;27.70;;;17.08;;
5416;SDS011;2731;50.754;12.990;2023-02-24T00:26:02;30.42;;;17.02;;
5416;SDS011;2731;50.754;12.990;2023-02-24T00:28:29;31.75;;;18.90;;
5416;SDS011;2731;50.754;12.990;2023-02-24T00:30:55;29.42;;;17.50;;
5416;SDS011;2731;50.754;12.990;2023-02-24T00:33:21;28.30;;;17.65;;
5416;SDS011;2731;50.754;12.990;2023-02-24T00:35:49;25.02;;;14.77;;
5416;SDS011;2731;50.754;12.990;2023-02-24T00:38:15;29.35;;;17.73;;
5416;SDS011;2731;50.754;12.990;2023-02-24T00:40:42;26.00;;;15.55;;
5416;SDS011;2731;50.754;12.990;2023-02-24T00:43:11;21.67;;;13.18;;
5416;SDS011;2731;50.754;12.990;2023-02-24T00:45:37;27.75;;;15.02;;
5416;SDS011;2731;50.754;12.990;2023-02-24T00:48:04;24.02;;;15.07;;
5416;SDS011;2731;50.754;12.990;2023-02-24T00:50:36;25.45;;;15.52;;
5416;SDS011;2731;50.754;12.990;2023-02-24T00:53:03;23.58;;;14.43;;
5416;SDS011;2731;50.754;12.990;2023-02-24T00:55:30;23.70;;;13.63;;
5416;SDS011;2731;50.754;12.990;2023-02-24T00:58:02;23.80;;;14.27;;
5416;SDS011;2731;50.754;12.990;2023-02-24T01:00:28;24.25;;;14.32;;
5416;SDS011;2731;50.754;12.990;2023-02-24T01:02:59;24.08;;;13.57;;
5416;SDS011;2731;50.754;12.990;2023-02-24T01:05:25;24.38;;;14.27;;
5416;SDS011;2731;50.754;12.990;2023-02-24T01:07:52;23.77;;;14.68;;
5416;SDS011;2731;50.754;12.990;2023-02-24T01:10:18;25.40;;;14.77;;
5416;SDS011;2731;50.754;12.990;2023-02-24T01:12:46;26.95;;;15.45;;
5416;SDS011;2731;50.754;12.990;2023-02-24T01:15:19;22.95;;;14.73;;
5416;SDS011;2731;50.754;12.990;2023-02-24T01:17:46;24.17;;;14.15;;
5416;SDS011;2731;50.754;12.990;2023-02-24T01:20:12;23.38;;;13.88;;
5416;SDS011;2731;50.754;12.990;2023-02-24T01:22:46;20.30;;;12.90;;
5416;SDS011;2731;50.754;12.990;2023-02-24T01:25:12;25.13;;;13.30;;
5416;SDS011;2731;50.754;12.990;2023-02-24T01:27:38;23.92;;;12.65;;
5416;SDS011;2731;50.754;12.990;2023-02-24T01:30:06;22.45;;;13.55;;
5416;SDS011;2731;50.754;12.990;2023-02-24T01:32:33;22.23;;;13.27;;
5416;SDS011;2731;50.754;12.990;2023-02-24T01:34:59;19.15;;;10.70;;
5416;SDS011;2731;50.754;12.990;2023-02-24T01:37:26;18.55;;;10.57;;
5416;SDS011;2731;50.754;12.990;2023-02-24T01:39:53;17.42;;;10.82;;
5416;SDS011;2731;50.754;12.990;2023-02-24T01:42:20;16.67;;;10.65;;
5416;SDS011;2731;50.754;12.990;2023-02-24T01:47:17;20.35;;;11.65;;
5416;SDS011;2731;50.754;12.990;2023-02-24T01:49:48;17.20;;;10.63;;
5416;SDS011;2731;50.754;12.990;2023-02-24T01:52:16;17.15;;;11.13;;
5416;SDS011;2731;50.754;12.990;2023-02-24T01:54:49;19.17;;;11.35;;
5416;SDS011;2731;50.754;12.990;2023-02-24T01:57:19;14.45;;;8.75;;
5416;SDS011;2731;50.754;12.990;2023-02-24T01:59:48;17.75;;;10.52;;
5416;SDS011;2731;50.754;12.990;2023-02-24T02:02:15;18.25;;;10.55;;
5416;SDS011;2731;50.754;12.990;2023-02-24T02:07:08;17.70;;;10.30;;
5416;SDS011;2731;50.754;12.990;2023-02-24T02:09:35;17.67;;;10.40;;
5416;SDS011;2731;50.754;12.990;2023-02-24T02:12:02;16.42;;;10.65;;
5416;SDS011;2731;50.754;12.990;2023-02-24T02:14:28;15.02;;;10.00;;
5416;SDS011;2731;50.754;12.990;2023-02-24T02:22:03;17.88;;;10.75;;
5416;SDS011;2731;50.754;12.990;2023-02-24T02:44:45;30.25;;;17.10;;
5416;SDS011;2731;50.754;12.990;2023-02-24T02:47:21;29.67;;;15.73;;
5416;SDS011;2731;50.754;12.990;2023-02-24T02:50:00;29.88;;;16.98;;
5416;SDS011;2731;50.754;12.990;2023-02-24T02:52:39;27.83;;;14.55;;
5416;SDS011;2731;50.754;12.990;2023-02-24T02:55:08;29.98;;;15.80;;
5416;SDS011;2731;50.754;12.990;2023-02-24T02:57:37;27.23;;;14.60;;
5416;SDS011;2731;50.754;12.990;2023-02-24T03:00:09;23.67;;;14.07;;
5416;SDS011;2731;50.754;12.990;2023-02-24T03:02:38;25.85;;;13.57;;
5416;SDS011;2731;50.754;12.990;2023-02-24T03:05:06;26.90;;;14.82;;
5416;SDS011;2731;50.754;12.990;2023-02-24T03:07:35;28.13;;;14.10;;
5416;SDS011;2731;50.754;12.990;2023-02-24T03:10:07;26.95;;;14.13;;
5416;SDS011;2731;50.754;12.990;2023-02-24T03:12:35;27.15;;;13.07;;
5416;SDS011;2731;50.754;12.990;2023-02-24T03:15:04;25.80;;;12.80;;
5416;SDS011;2731;50.754;12.990;2023-02-24T03:17:33;20.92;;;12.40;;
5416;SDS011;2731;50.754;12.990;2023-02-24T03:20:17;19.10;;;11.57;;
5416;SDS011;2731;50.754;12.990;2023-02-24T03:25:24;18.50;;;10.05;;
5416;SDS011;2731;50.754;12.990;2023-02-24T03:27:54;15.25;;;8.20;;
5416;SDS011;2731;50.754;12.990;2023-02-24T03:30:27;12.98;;;7.70;;
5416;SDS011;2731;50.754;12.990;2023-02-24T03:35:41;14.63;;;8.55;;
5416;SDS011;2731;50.754;12.990;2023-02-24T03:38:07;13.98;;;8.05;;
5416;SDS011;2731;50.754;12.990;2023-02-24T03:40:38;14.02;;;9.18;;
5416;SDS011;2731;50.754;12.990;2023-02-24T03:45:34;14.38;;;7.97;;
5416;SDS011;2731;50.754;12.990;2023-02-24T03:48:02;12.98;;;6.85;;
5416;SDS011;2731;50.754;12.990;2023-02-24T03:50:29;12.35;;;7.30;;
5416;SDS011;2731;50.754;12.990;2023-02-24T03:55:38;14.23;;;8.25;;
5416;SDS011;2731;50.754;12.990;2023-02-24T04:00:49;13.40;;;7.78;;
5416;SDS011;2731;50.754;12.990;2023-02-24T04:11:32;15.50;;;8.63;;
5416;SDS011;2731;50.754;12.990;2023-02-24T04:16:52;13.75;;;7.28;;
5416;SDS011;2731;50.754;12.990;2023-02-24T04:19:17;12.80;;;7.28;;
5416;SDS011;2731;50.754;12.990;2023-02-24T04:21:45;9.32;;;6.30;;
5416;SDS011;2731;50.754;12.990;2023-02-24T04:24:13;9.20;;;4.97;;
5416;SDS011;2731;50.754;12.990;2023-02-24T04:26:43;13.73;;;5.18;;
5416;SDS011;2731;50.754;12.990;2023-02-24T04:29:10;7.55;;;4.40;;
5416;SDS011;2731;50.754;12.990;2023-02-24T04:31:44;8.70;;;4.65;;
5416;SDS011;2731;50.754;12.990;2023-02-24T04:34:12;10.35;;;5.45;;
5416;SDS011;2731;50.754;12.990;2023-02-24T04:36:44;12.35;;;6.43;;
5416;SDS011;2731;50.754;12.990;2023-02-24T04:39:17;13.93;;;5.82;;
5416;SDS011;2731;50.754;12.990;2023-02-24T04:41:46;13.68;;;6.28;;
5416;SDS011;2731;50.754;12.990;2023-02-24T04:44:14;11.35;;;5.85;;
5416;SDS011;2731;50.754;12.990;2023-02-24T04:46:41;11.98;;;5.68;;
5416;SDS011;2731;50.754;12.990;2023-02-24T04:49:08;11.70;;;5.53;;
5416;SDS011;2731;50.754;12.990;2023-02-24T04:51:34;20.25;;;6.82;;
5416;SDS011;2731;50.754;12.990;2023-02-24T04:54:00;10.38;;;6.05;;
5416;SDS011;2731;50.754;12.990;2023-02-24T04:56:28;11.57;;;6.07;;
5416;SDS011;2731;50.754;12.990;2023-02-24T04:58:54;9.73;;;5.88;;
5416;SDS011;2731;50.754;12.990;2023-02-24T05:01:20;12.27;;;5.90;;
5416;SDS011;2731;50.754;12.990;2023-02-24T05:03:46;10.60;;;5.57;;
5416;SDS011;2731;50.754;12.990;2023-02-24T05:06:14;10.80;;;5.22;;
5416;SDS011;2731;50.754;12.990;2023-02-24T05:08:40;12.95;;;6.78;;
5416;SDS011;2731;50.754;12.990;2023-02-24T05:11:10;14.75;;;6.45;;
5416;SDS011;2731;50.754;12.990;2023-02-24T05:13:39;11.85;;;5.55;;
5416;SDS011;2731;50.754;12.990;2023-02-24T05:16:10;13.20;;;6.35;;
5416;SDS011;2731;50.754;12.990;2023-02-24T05:18:37;15.30;;;6.70;;
5416;SDS011;2731;50.754;12.990;2023-02-24T05:21:06;11.50;;;5.85;;
5416;SDS011;2731;50.754;12.990;2023-02-24T05:23:52;17.02;;;7.15;;
5416;SDS011;2731;50.754;12.990;2023-02-24T05:26:19;11.68;;;5.45;;
5416;SDS011;2731;50.754;12.990;2023-02-24T05:28:48;19.08;;;6.80;;
5416;SDS011;2731;50.754;12.990;2023-02-24T05:31:18;12.70;;;6.70;;
5416;SDS011;2731;50.754;12.990;2023-02-24T05:33:45;11.95;;;6.82;;
5416;SDS011;2731;50.754;12.990;2023-02-24T05:36:16;11.60;;;5.65;;
5416;SDS011;2731;50.754;12.990;2023-02-24T05:38:43;14.43;;;6.57;;
5416;SDS011;2731;50.754;12.990;2023-02-24T05:41:12;12.80;;;6.85;;
5416;SDS011;2731;50.754;12.990;2023-02-24T05:43:53;14.05;;;7.25;;
5416;SDS011;2731;50.754;12.990;2023-02-24T05:46:20;14.60;;;7.55;;
5416;SDS011;2731;50.754;12.990;2023-02-24T05:48:52;14.25;;;6.80;;
5416;SDS011;2731;50.754;12.990;2023-02-24T05:51:21;10.38;;;6.60;;
5416;SDS011;2731;50.754;12.990;2023-02-24T05:53:48;13.77;;;5.93;;
5416;SDS011;2731;50.754;12.990;2023-02-24T05:56:20;13.77;;;7.53;;
5416;SDS011;2731;50.754;12.990;2023-02-24T05:58:46;10.75;;;6.32;;
5416;SDS011;2731;50.754;12.990;2023-02-24T06:01:15;13.77;;;6.28;;
5416;SDS011;2731;50.754;12.990;2023-02-24T06:03:46;13.55;;;6.88;;
5416;SDS011;2731;50.754;12.990;2023-02-24T06:06:13;12.13;;;6.57;;
5416;SDS011;2731;50.754;12.990;2023-02-24T06:08:39;11.55;;;6.35;;
5416;SDS011;2731;50.754;12.990;2023-02-24T06:11:14;15.57;;;7.50;;
5416;SDS011;2731;50.754;12.990;2023-02-24T06:13:42;13.05;;;5.82;;
5416;SDS011;2731;50.754;12.990;2023-02-24T06:16:12;13.35;;;6.38;;
5416;SDS011;2731;50.754;12.990;2023-02-24T06:18:39;10.23;;;5.78;;
5416;SDS011;2731;50.754;12.990;2023-02-24T06:21:05;15.80;;;7.18;;
5416;SDS011;2731;50.754;12.990;2023-02-24T06:23:31;11.30;;;6.13;;
5416;SDS011;2731;50.754;12.990;2023-02-24T06:26:01;9.95;;;5.63;;
5416;SDS011;2731;50.754;12.990;2023-02-24T06:28:28;12.05;;;5.78;;
5416;SDS011;2731;50.754;12.990;2023-02-24T06:30:54;10.38;;;5.35;;
5416;SDS011;2731;50.754;12.990;2023-02-24T06:33:21;8.23;;;3.78;;
5416;SDS011;2731;50.754;12.990;2023-02-24T06:35:50;6.85;;;4.82;;
5416;SDS011;2731;50.754;12.990;2023-02-24T06:38:17;9.02;;;5.40;;
5416;SDS011;2731;50.754;12.990;2023-02-24T06:40:43;5.80;;;4.07;;
5416;SDS011;2731;50.754;12.990;2023-02-24T06:43:11;6.28;;;4.32;;
5416;SDS011;2731;50.754;12.990;2023-02-24T06:45:37;4.57;;;2.75;;
5416;SDS011;2731;50.754;12.990;2023-02-24T06:48:06;3.78;;;2.47;;
5416;SDS011;2731;50.754;12.990;2023-02-24T06:50:33;3.45;;;1.50;;
5416;SDS011;2731;50.754;12.990;2023-02-24T06:53:00;1.95;;;1.25;;
5416;SDS011;2731;50.754;12.990;2023-02-24T06:55:26;1.90;;;1.48;;
5416;SDS011;2731;50.754;12.990;2023-02-24T06:57:57;1.88;;;1.23;;
5416;SDS011;2731;50.754;12.990;2023-02-24T07:00:29;2.47;;;1.25;;
5416;SDS011;2731;50.754;12.990;2023-02-24T07:03:06;2.92;;;1.58;;
5416;SDS011;2731;50.754;12.990;2023-02-24T07:05:39;2.85;;;1.65;;
5416;SDS011;2731;50.754;12.990;2023-02-24T07:08:06;2.17;;;1.35;;
5416;SDS011;2731;50.754;12.990;2023-02-24T07:10:33;1.92;;;1.48;;
5416;SDS011;2731;50.754;12.990;2023-02-24T07:12:59;2.13;;;1.42;;
5416;SDS011;2731;50.754;12.990;2023-02-24T07:15:25;3.53;;;1.70;;
5416;SDS011;2731;50.754;12.990;2023-02-24T07:17:56;2.05;;;1.50;;
5416;SDS011;2731;50.754;12.990;2023-02-24T07:20:22;3.38;;;1.38;;
5416;SDS011;2731;50.754;12.990;2023-02-24T07:22:50;2.47;;;1.70;;
5416;SDS011;2731;50.754;12.990;2023-02-24T07:25:16;2.75;;;1.98;;
5416;SDS011;2731;50.754;12.990;2023-02-24T07:28:00;1.80;;;1.17;;
5416;SDS011;2731;50.754;12.990;2023-02-24T07:30:30;2.47;;;1.30;;
5416;SDS011;2731;50.754;12.990;2023-02-24T07:33:01;3.97;;;1.75;;
5416;SDS011;2731;50.754;12.990;2023-02-24T07:35:31;3.20;;;1.95;;
5416;SDS011;2731;50.754;12.990;2023-02-24T07:37:58;4.05;;;2.33;;
5416;SDS011;2731;50.754;12.990;2023-02-24T07:40:32;3.03;;;1.42;;
5416;SDS011;2731;50.754;12.990;2023-02-24T07:43:00;2.38;;;1.60;;
5416;SDS011;2731;50.754;12.990;2023-02-24T07:45:28;2.13;;;1.45;;
5416;SDS011;2731;50.754;12.990;2023-02-24T07:47:56;2.85;;;1.50;;
5416;SDS011;2731;50.754;12.990;2023-02-24T07:50:27;1.67;;;1.30;;
5416;SDS011;2731;50.754;12.990;2023-02-24T07:52:59;3.13;;;1.65;;
5416;SDS011;2731;50.754;12.990;2023-02-24T07:55:33;2.67;;;1.33;;
5416;SDS011;2731;50.754;12.990;2023-02-24T07:58:00;2.83;;;1.65;;
5416;SDS011;2731;50.754;12.990;2023-02-24T08:00:28;2.40;;;1.38;;
5416;SDS011;2731;50.754;12.990;2023-02-24T08:02:54;2.03;;;1.50;;
5416;SDS011;2731;50.754;12.990;2023-02-24T08:05:24;1.90;;;1.30;;
5416;SDS011;2731;50.754;12.990;2023-02-24T08:07:52;2.40;;;1.42;;
5416;SDS011;2731;50.754;12.990;2023-02-24T08:10:23;2.42;;;1.48;;
5416;SDS011;2731;50.754;12.990;2023-02-24T08:12:50;1.70;;;1.40;;
5416;SDS011;2731;50.754;12.990;2023-02-24T08:15:19;2.50;;;1.45;;
5416;SDS011;2731;50.754;12.990;2023-02-24T08:17:55;3.72;;;2.33;;
5416;SDS011;2731;50.754;12.990;2023-02-24T08:20:29;3.92;;;2.20;;
5416;SDS011;2731;50.754;12.990;2023-02-24T08:23:18;2.85;;;1.80;;
5416;SDS011;2731;50.754;12.990;2023-02-24T08:25:49;2.53;;;2.00;;
5416;SDS011;2731;50.754;12.990;2023-02-24T08:28:17;3.03;;;1.92;;
5416;SDS011;2731;50.754;12.990;2023-02-24T08:30:45;2.65;;;1.77;;
5416;SDS011;2731;50.754;12.990;2023-02-24T08:33:17;3.00;;;1.70;;
5416;SDS011;2731;50.754;12.990;2023-02-24T08:38:17;4.30;;;3.03;;
5416;SDS011;2731;50.754;12.990;2023-02-24T08:41:13;3.92;;;2.38;;
5416;SDS011;2731;50.754;12.990;2023-02-24T08:43:45;4.50;;;2.90;;
5416;SDS011;2731;50.754;12.990;2023-02-24T08:46:22;6.38;;;2.88;;
5416;SDS011;2731;50.754;12.990;2023-02-24T08:49:13;6.38;;;2.47;;
5416;SDS011;2731;50.754;12.990;2023-02-24T08:52:02;8.70;;;2.60;;
5416;SDS011;2731;50.754;12.990;2023-02-24T08:54:35;3.33;;;2.33;;
5416;SDS011;2731;50.754;12.990;2023-02-24T08:57:16;6.50;;;2.92;;
5416;SDS011;2731;50.754;12.990;2023-02-24T08:59:53;5.68;;;3.00;;
5416;SDS011;2731;50.754;12.990;2023-02-24T09:02:24;8.82;;;3.95;;
5416;SDS011;2731;50.754;12.990;2023-02-24T09:04:56;6.93;;;3.83;;
5416;SDS011;2731;50.754;12.990;2023-02-24T09:07:27;12.45;;;4.75;;
5416;SDS011;2731;50.754;12.990;2023-02-24T09:09:54;9.15;;;3.80;;
5416;SDS011;2731;50.754;12.990;2023-02-24T09:12:25;11.27;;;4.15;;
5416;SDS011;2731;50.754;12.990;2023-02-24T09:14:57;7.43;;;3.67;;
5416;SDS011;2731;50.754;12.990;2023-02-24T09:17:28;5.68;;;3.25;;
5416;SDS011;2731;50.754;12.990;2023-02-24T09:20:15;8.27;;;3.72;;
5416;SDS011;2731;50.754;12.990;2023-02-24T09:23:01;6.22;;;3.58;;
5416;SDS011;2731;50.754;12.990;2023-02-24T09:25:29;11.40;;;3.45;;
5416;SDS011;2731;50.754;12.990;2023-02-24T09:28:19;5.63;;;3.63;;
5416;SDS011;2731;50.754;12.990;2023-02-24T09:33:31;8.05;;;4.07;;
5416;SDS011;2731;50.754;12.990;2023-02-24T09:36:19;7.13;;;3.42;;
5416;SDS011;2731;50.754;12.990;2023-02-24T09:38:59;7.90;;;4.53;;
5416;SDS011;2731;50.754;12.990;2023-02-24T09:41:47;9.65;;;4.70;;
5416;SDS011;2731;50.754;12.990;2023-02-24T09:44:36;10.35;;;4.45;;
5416;SDS011;2731;50.754;12.990;2023-02-24T09:50:12;10.52;;;4.90;;
5416;SDS011;2731;50.754;12.990;2023-02-24T09:52:47;10.48;;;4.88;;
5416;SDS011;2731;50.754;12.990;2023-02-24T09:58:04;11.27;;;5.38;;
5416;SDS011;2731;50.754;12.990;2023-02-24T10:03:56;9.98;;;5.53;;
5416;SDS011;2731;50.754;12.990;2023-02-24T10:09:27;12.25;;;5.15;;
5416;SDS011;2731;50.754;12.990;2023-02-24T10:12:12;7.53;;;4.28;;
5416;SDS011;2731;50.754;12.990;2023-02-24T10:14:47;9.48;;;4.90;;
5416;SDS011;2731;50.754;12.990;2023-02-24T10:17:55;7.70;;;4.80;;
5416;SDS011;2731;50.754;12.990;2023-02-24T10:20:36;10.02;;;5.13;;
5416;SDS011;2731;50.754;12.990;2023-02-24T10:23:21;11.32;;;5.28;;
5416;SDS011;2731;50.754;12.990;2023-02-24T10:26:06;10.65;;;5.22;;
5416;SDS011;2731;50.754;12.990;2023-02-24T10:31:18;8.07;;;4.72;;
5416;SDS011;2731;50.754;12.990;2023-02-24T10:34:04;13.80;;;5.40;;
5416;SDS011;2731;50.754;12.990;2023-02-24T10:36:37;11.30;;;5.53;;
5416;SDS011;2731;50.754;12.990;2023-02-24T10:39:15;9.77;;;4.93;;
5416;SDS011;2731;50.754;12.990;2023-02-24T10:41:46;10.85;;;5.32;;
5416;SDS011;2731;50.754;12.990;2023-02-24T10:44:22;11.77;;;6.03;;
5416;SDS011;2731;50.754;12.990;2023-02-24T10:47:00;11.38;;;4.75;;
5416;SDS011;2731;50.754;12.990;2023-02-24T10:49:44;10.20;;;5.53;;
5416;SDS011;2731;50.754;12.990;2023-02-24T10:52:29;10.63;;;5.68;;
5416;SDS011;2731;50.754;12.990;2023-02-24T10:55:30;10.27;;;5.05;;
5416;SDS011;2731;50.754;12.990;2023-02-24T10:58:33;10.98;;;5.05;;
5416;SDS011;2731;50.754;12.990;2023-02-24T11:01:32;10.00;;;4.95;;
5416;SDS011;2731;50.754;12.990;2023-02-24T11:04:07;12.82;;;5.40;;
5416;SDS011;2731;50.754;12.990;2023-02-24T11:06:48;11.82;;;5.20;;
5416;SDS011;2731;50.754;12.990;2023-02-24T11:09:25;8.82;;;4.70;;
5416;SDS011;2731;50.754;12.990;2023-02-24T11:11:51;8.05;;;5.13;;
5416;SDS011;2731;50.754;12.990;2023-02-24T11:14:38;9.70;;;4.90;;
5416;SDS011;2731;50.754;12.990;2023-02-24T11:17:31;10.00;;;4.57;;
5416;SDS011;2731;50.754;12.990;2023-02-24T11:19:59;6.63;;;4.25;;
5416;SDS011;2731;50.754;12.990;2023-02-24T11:22:31;6.75;;;3.88;;
5416;SDS011;2731;50.754;12.990;2023-02-24T11:25:02;10.82;;;4.95;;
5416;SDS011;2731;50.754;12.990;2023-02-24T11:27:31;12.27;;;5.53;;
5416;SDS011;2731;50.754;12.990;2023-02-24T11:30:42;10.27;;;5.68;;
5416;SDS011;2731;50.754;12.990;2023-02-24T11:35:33;9.23;;;4.40;;
5416;SDS011;2731;50.754;12.990;2023-02-24T11:41:11;8.90;;;5.43;;
5416;SDS011;2731;50.754;12.990;2023-02-24T11:43:42;8.38;;;4.93;;
5416;SDS011;2731;50.754;12.990;2023-02-24T11:46:13;14.40;;;5.82;;
5416;SDS011;2731;50.754;12.990;2023-02-24T11:48:48;9.52;;;5.13;;
5416;SDS011;2731;50.754;12.990;2023-02-24T11:51:31;8.95;;;4.95;;
5416;SDS011;2731;50.754;12.990;2023-02-24T11:54:05;7.22;;;3.50;;
5416;SDS011;2731;50.754;12.990;2023-02-24T11:56:41;6.97;;;4.40;;
5416;SDS011;2731;50.754;12.990;2023-02-24T11:59:15;8.98;;;3.90;;
5416;SDS011;2731;50.754;12.990;2023-02-24T12:07:13;6.13;;;3.15;;
5416;SDS011;2731;50.754;12.990;2023-02-24T12:09:59;7.00;;;3.17;;
5416;SDS011;2731;50.754;12.990;2023-02-24T12:12:36;7.03;;;3.63;;
5416;SDS011;2731;50.754;12.990;2023-02-24T12:15:12;6.47;;;3.05;;
5416;SDS011;2731;50.754;12.990;2023-02-24T12:17:48;7.20;;;3.88;;
5416;SDS011;2731;50.754;12.990;2023-02-24T12:23:07;6.20;;;3.80;;
5416;SDS011;2731;50.754;12.990;2023-02-24T12:36:50;9.60;;;5.40;;
5416;SDS011;2731;50.754;12.990;2023-02-24T12:39:28;9.25;;;4.75;;
5416;SDS011;2731;50.754;12.990;2023-02-24T12:44:41;10.77;;;5.05;;
5416;SDS011;2731;50.754;12.990;2023-02-24T12:47:13;8.55;;;4.40;;
5416;SDS011;2731;50.754;12.990;2023-02-24T12:52:14;8.70;;;5.05;;
5416;SDS011;2731;50.754;12.990;2023-02-24T12:59:50;9.05;;;4.70;;
5416;SDS011;2731;50.754;12.990;2023-02-24T13:02:40;11.43;;;4.80;;
5416;SDS011;2731;50.754;12.990;2023-02-24T13:05:46;9.15;;;5.50;;
5416;SDS011;2731;50.754;12.990;2023-02-24T13:11:12;8.60;;;5.00;;
5416;SDS011;2731;50.754;12.990;2023-02-24T13:13:56;11.25;;;5.38;;
5416;SDS011;2731;50.754;12.990;2023-02-24T13:16:34;12.30;;;5.03;;
5416;SDS011;2731;50.754;12.990;2023-02-24T13:19:28;10.10;;;4.97;;
5416;SDS011;2731;50.754;12.990;2023-02-24T13:27:28;11.82;;;5.15;;
5416;SDS011;2731;50.754;12.990;2023-02-24T13:29:58;7.43;;;4.05;;
5416;SDS011;2731;50.754;12.990;2023-02-24T13:35:03;8.07;;;4.68;;
5416;SDS011;2731;50.754;12.990;2023-02-24T13:37:37;9.65;;;5.15;;
5416;SDS011;2731;50.754;12.990;2023-02-24T13:40:23;9.30;;;5.00;;
5416;SDS011;2731;50.754;12.990;2023-02-24T13:43:00;9.73;;;4.85;;
5416;SDS011;2731;50.754;12.990;2023-02-24T13:48:05;8.40;;;4.50;;
5416;SDS011;2731;50.754;12.990;2023-02-24T13:56:18;11.48;;;4.85;;
5416;SDS011;2731;50.754;12.990;2023-02-24T14:01:44;10.95;;;4.95;;
5416;SDS011;2731;50.754;12.990;2023-02-24T14:04:21;8.07;;;4.75;;
5416;SDS011;2731;50.754;12.990;2023-02-24T14:06:52;8.27;;;5.30;;
5416;SDS011;2731;50.754;12.990;2023-02-24T14:09:30;9.15;;;4.05;;
5416;SDS011;2731;50.754;12.990;2023-02-24T14:11:59;12.02;;;4.80;;
5416;SDS011;2731;50.754;12.990;2023-02-24T14:14:26;9.40;;;4.78;;
5416;SDS011;2731;50.754;12.990;2023-02-24T14:16:54;6.65;;;4.32;;
5416;SDS011;2731;50.754;12.990;2023-02-24T14:19:24;8.38;;;4.18;;
5416;SDS011;2731;50.754;12.990;2023-02-24T14:21:52;13.68;;;5.75;;
5416;SDS011;2731;50.754;12.990;2023-02-24T14:24:19;8.32;;;4.30;;
5416;SDS011;2731;50.754;12.990;2023-02-24T14:26:53;10.70;;;5.40;;
5416;SDS011;2731;50.754;12.990;2023-02-24T14:29:24;11.82;;;5.38;;
5416;SDS011;2731;50.754;12.990;2023-02-24T14:31:57;8.10;;;4.75;;
5416;SDS011;2731;50.754;12.990;2023-02-24T14:34:27;10.45;;;4.55;;
5416;SDS011;2731;50.754;12.990;2023-02-24T14:36:55;8.65;;;4.85;;
5416;SDS011;2731;50.754;12.990;2023-02-24T14:39:28;8.50;;;4.72;;
5416;SDS011;2731;50.754;12.990;2023-02-24T14:42:08;8.35;;;4.93;;
5416;SDS011;2731;50.754;12.990;2023-02-24T14:44:44;11.27;;;5.00;;
5416;SDS011;2731;50.754;12.990;2023-02-24T14:47:13;10.05;;;4.57;;
5416;SDS011;2731;50.754;12.990;2023-02-24T14:49:50;8.93;;;4.65;;
5416;SDS011;2731;50.754;12.990;2023-02-24T14:54:53;9.82;;;4.75;;
5416;SDS011;2731;50.754;12.990;2023-02-24T14:57:23;11.25;;;5.85;;
5416;SDS011;2731;50.754;12.990;2023-02-24T14:59:56;8.23;;;4.63;;
5416;SDS011;2731;50.754;12.990;2023-02-24T15:02:27;11.30;;;5.53;;
5416;SDS011;2731;50.754;12.990;2023-02-24T15:04:55;8.55;;;4.72;;
5416;SDS011;2731;50.754;12.990;2023-02-24T15:07:24;9.85;;;5.22;;
5416;SDS011;2731;50.754;12.990;2023-02-24T15:09:52;9.10;;;4.68;;
5416;SDS011;2731;50.754;12.990;2023-02-24T15:12:22;8.85;;;4.72;;
5416;SDS011;2731;50.754;12.990;2023-02-24T15:14:52;11.25;;;4.97;;
5416;SDS011;2731;50.754;12.990;2023-02-24T15:17:19;8.95;;;4.07;;
5416;SDS011;2731;50.754;12.990;2023-02-24T15:19:48;7.60;;;4.32;;
5416;SDS011;2731;50.754;12.990;2023-02-24T15:22:26;8.77;;;5.18;;
5416;SDS011;2731;50.754;12.990;2023-02-24T15:25:39;8.02;;;4.15;;
5416;SDS011;2731;50.754;12.990;2023-02-24T15:27:54;6.43;;;4.78;;
5416;SDS011;2731;50.754;12.990;2023-02-24T15:30:39;7.90;;;4.18;;
5416;SDS011;2731;50.754;12.990;2023-02-24T15:33:18;8.10;;;4.32;;
5416;SDS011;2731;50.754;12.990;2023-02-24T15:35:49;8.70;;;4.75;;
5416;SDS011;2731;50.754;12.990;2023-02-24T15:38:40;9.80;;;5.07;;
5416;SDS011;2731;50.754;12.990;2023-02-24T15:41:05;9.35;;;4.50;;
5416;SDS011;2731;50.754;12.990;2023-02-24T15:43:36;8.57;;;4.65;;
5416;SDS011;2731;50.754;12.990;2023-02-24T15:48:32;8.80;;;4.88;;
5416;SDS011;2731;50.754;12.990;2023-02-24T15:51:00;10.73;;;5.65;;
5416;SDS011;2731;50.754;12.990;2023-02-24T15:53:31;9.98;;;5.15;;
5416;SDS011;2731;50.754;12.990;2023-02-24T15:55:57;11.68;;;4.40;;
5416;SDS011;2731;50.754;12.990;2023-02-24T15:58:26;8.75;;;4.60;;
5416;SDS011;2731;50.754;12.990;2023-02-24T16:00:58;9.18;;;5.00;;
5416;SDS011;2731;50.754;12.990;2023-02-24T16:03:24;11.93;;;5.38;;
5416;SDS011;2731;50.754;12.990;2023-02-24T16:05:50;9.48;;;4.68;;
5416;SDS011;2731;50.754;12.990;2023-02-24T16:08:18;10.27;;;5.57;;
5416;SDS011;2731;50.754;12.990;2023-02-24T16:10:47;11.23;;;5.32;;
5416;SDS011;2731;50.754;12.990;2023-02-24T16:13:22;11.40;;;5.93;;
5416;SDS011;2731;50.754;12.990;2023-02-24T16:15:49;12.18;;;5.43;;
5416;SDS011;2731;50.754;12.990;2023-02-24T16:18:17;13.13;;;5.05;;
5416;SDS011;2731;50.754;12.990;2023-02-24T16:20:48;11.27;;;5.47;;
5416;SDS011;2731;50.754;12.990;2023-02-24T16:23:23;10.52;;;5.25;;
5416;SDS011;2731;50.754;12.990;2023-02-24T16:25:55;9.45;;;4.45;;
5416;SDS011;2731;50.754;12.990;2023-02-24T16:28:24;14.70;;;5.75;;
5416;SDS011;2731;50.754;12.990;2023-02-24T16:30:52;10.48;;;5.65;;
5416;SDS011;2731;50.754;12.990;2023-02-24T16:33:19;13.23;;;5.72;;
5416;SDS011;2731;50.754;12.990;2023-02-24T16:35:48;10.90;;;5.78;;
5416;SDS011;2731;50.754;12.990;2023-02-24T16:38:20;10.25;;;5.40;;
5416;SDS011;2731;50.754;12.990;2023-02-24T16:40:50;11.13;;;6.40;;
5416;SDS011;2731;50.754;12.990;2023-02-24T16:43:17;12.07;;;5.88;;
5416;SDS011;2731;50.754;12.990;2023-02-24T16:45:45;10.63;;;5.55;;
5416;SDS011;2731;50.754;12.990;2023-02-24T16:48:23;15.05;;;7.05;;
5416;SDS011;2731;50.754;12.990;2023-02-24T16:50:50;13.88;;;7.25;;
5416;SDS011;2731;50.754;12.990;2023-02-24T16:53:21;14.35;;;7.78;;
5416;SDS011;2731;50.754;12.990;2023-02-24T16:55:49;15.25;;;7.60;;
5416;SDS011;2731;50.754;12.990;2023-02-24T16:58:17;20.90;;;11.38;;
5416;SDS011;2731;50.754;12.990;2023-02-24T17:00:45;16.10;;;9.27;;
5416;SDS011;2731;50.754;12.990;2023-02-24T17:03:22;14.60;;;7.68;;
5416;SDS011;2731;50.754;12.990;2023-02-24T17:05:49;18.02;;;9.32;;
5416;SDS011;2731;50.754;12.990;2023-02-24T17:08:18;12.13;;;6.15;;
5416;SDS011;2731;50.754;12.990;2023-02-24T17:10:46;16.40;;;8.15;;
5416;SDS011;2731;50.754;12.990;2023-02-24T17:13:16;14.50;;;6.97;;
5416;SDS011;2731;50.754;12.990;2023-02-24T17:15:42;24.77;;;12.05;;
5416;SDS011;2731;50.754;12.990;2023-02-24T17:18:12;22.13;;;11.65;;
5416;SDS011;2731;50.754;12.990;2023-02-24T17:20:43;19.33;;;10.90;;
5416;SDS011;2731;50.754;12.990;2023-02-24T17:23:11;20.98;;;9.85;;
5416;SDS011;2731;50.754;12.990;2023-02-24T17:25:52;17.80;;;9.40;;
5416;SDS011;2731;50.754;12.990;2023-02-24T17:28:23;18.00;;;10.32;;
5416;SDS011;2731;50.754;12.990;2023-02-24T17:31:21;11.30;;;6.13;;
5416;SDS011;2731;50.754;12.990;2023-02-24T17:33:56;11.68;;;7.15;;
5416;SDS011;2731;50.754;12.990;2023-02-24T17:36:22;11.80;;;7.03;;